Time;durP1;ratioP1;P1;durP2;ratioP2;P2;SDS_P1;SDS_P2;PMS_P1;PMS_P2;Temp;Humidity;BMP_temperature;BMP_pressure;BME280_temperature;BME280_humidity;BME280_pressure;Samples;Min_cycle;Max_cycle;Signal;HPM_P1;HPM_P2
2021/12/20 00:00:18;;;;;;;22.67;3.67;;;5.90;99.90;;;;;;5031919;28;20041;-63
2021/12/20 00:02:47;;;;;;;17.20;3.50;;;5.90;99.90;;;;;;5022849;28;20043;-63
2021/12/20 00:05:14;;;;;;;30.42;4.80;;;5.90;99.90;;;;;;5030227;28;20098;-64
2021/12/20 00:07:40;;;;;;;20.23;4.22;;;5.80;99.90;;;;;;5038164;28;20079;-63
2021/12/20 00:10:06;;;;;;;20.48;3.83;;;5.80;99.90;;;;;;5032331;28;20068;-63
2021/12/20 00:12:33;;;;;;;26.90;4.47;;;5.70;99.90;;;;;;5031859;28;20191;-62
2021/12/20 00:14:58;;;;;;;27.25;4.90;;;5.60;99.90;;;;;;5029686;28;20423;-63
2021/12/20 00:17:24;;;;;;;20.83;3.70;;;5.50;99.90;;;;;;5031963;28;20113;-63
2021/12/20 00:19:50;;;;;;;26.42;3.95;;;5.40;99.90;;;;;;5047054;28;20076;-62
2021/12/20 00:22:15;;;;;;;22.10;3.85;;;5.40;99.90;;;;;;5033092;28;20033;-63
2021/12/20 00:24:41;;;;;;;18.52;3.80;;;5.40;99.90;;;;;;5048208;28;20459;-63
2021/12/20 00:27:08;;;;;;;23.83;4.10;;;5.40;99.90;;;;;;5031266;28;20397;-63
2021/12/20 00:29:35;;;;;;;20.48;3.38;;;5.40;99.90;;;;;;5030099;28;20072;-62
2021/12/20 00:32:01;;;;;;;26.27;3.47;;;5.30;99.90;;;;;;5031629;28;20550;-63
2021/12/20 00:34:26;;;;;;;21.63;4.25;;;5.30;99.90;;;;;;5032026;28;20036;-65
2021/12/20 00:37:01;;;;;;;18.05;3.70;;;5.30;99.90;;;;;;5014131;28;20041;-65
2021/12/20 00:42:10;;;;;;;20.73;3.55;;;5.10;99.90;;;;;;5030855;28;20455;-66
2021/12/20 00:44:36;;;;;;;22.85;3.90;;;5.10;99.90;;;;;;5049289;28;20123;-66
2021/12/20 00:47:02;;;;;;;18.67;3.17;;;5.00;99.90;;;;;;5030146;28;20441;-65
2021/12/20 00:49:28;;;;;;;25.55;3.33;;;4.90;99.90;;;;;;5031374;28;20041;-65
2021/12/20 00:51:53;;;;;;;19.20;3.05;;;4.80;99.90;;;;;;5032942;28;20536;-63
2021/12/20 00:54:19;;;;;;;17.70;3.22;;;4.80;99.90;;;;;;5030926;28;20044;-63
2021/12/20 00:56:44;;;;;;;15.70;3.78;;;4.70;99.90;;;;;;5047301;28;20037;-62
2021/12/20 00:59:10;;;;;;;24.27;3.50;;;4.70;99.90;;;;;;5029614;28;20166;-63
2021/12/20 01:01:35;;;;;;;21.50;3.88;;;4.70;99.90;;;;;;5029016;28;20083;-63
2021/12/20 01:04:02;;;;;;;23.88;3.78;;;4.60;99.90;;;;;;5014960;28;20068;-63
2021/12/20 01:06:28;;;;;;;15.40;3.40;;;4.60;99.90;;;;;;5030676;28;20071;-62
2021/12/20 01:08:53;;;;;;;18.50;3.50;;;4.60;99.90;;;;;;5031577;28;20071;-63
2021/12/20 01:11:23;;;;;;;25.63;3.70;;;4.60;99.90;;;;;;5026925;28;20999;-63
2021/12/20 01:13:49;;;;;;;21.58;3.55;;;4.50;99.90;;;;;;5022200;28;20044;-63
2021/12/20 01:16:15;;;;;;;22.20;3.75;;;4.40;99.90;;;;;;5030484;28;20523;-63
2021/12/20 01:18:41;;;;;;;20.08;3.35;;;4.30;99.90;;;;;;5013390;28;20033;-63
2021/12/20 01:21:07;;;;;;;20.20;3.38;;;4.20;99.90;;;;;;5020755;28;20510;-63
2021/12/20 01:23:34;;;;;;;18.58;3.15;;;4.20;99.90;;;;;;5032661;28;20045;-63
2021/12/20 01:26:00;;;;;;;23.23;3.00;;;4.10;99.90;;;;;;5030061;28;20063;-63
2021/12/20 01:28:26;;;;;;;15.68;2.72;;;4.10;99.90;;;;;;5012542;28;20116;-63
2021/12/20 01:30:52;;;;;;;14.10;2.90;;;4.00;99.90;;;;;;5027582;28;20404;-63
2021/12/20 01:33:18;;;;;;;22.17;3.92;;;3.90;99.90;;;;;;5028967;28;20852;-62
2021/12/20 01:35:43;;;;;;;19.85;3.60;;;3.90;99.90;;;;;;5027925;28;20511;-62
2021/12/20 01:38:09;;;;;;;21.52;3.38;;;3.80;99.90;;;;;;5047903;28;20540;-63
2021/12/20 01:40:36;;;;;;;19.88;3.15;;;3.70;99.90;;;;;;5047323;28;20048;-63
2021/12/20 01:43:03;;;;;;;23.33;3.33;;;3.70;99.90;;;;;;5030248;28;20143;-63
2021/12/20 01:45:29;;;;;;;16.65;3.47;;;3.60;99.90;;;;;;5047871;28;20043;-62
2021/12/20 01:48:09;;;;;;;18.70;3.60;;;3.50;99.90;;;;;;5047790;28;20587;-63
2021/12/20 01:53:17;;;;;;;19.55;3.22;;;3.40;99.90;;;;;;5049094;28;20469;-63
2021/12/20 01:55:42;;;;;;;20.48;3.65;;;3.30;99.90;;;;;;5046786;28;20025;-65
2021/12/20 01:58:08;;;;;;;17.27;3.45;;;3.30;99.90;;;;;;5028306;28;20039;-65
2021/12/20 02:00:34;;;;;;;17.75;3.28;;;3.20;99.90;;;;;;5026850;28;20049;-65
2021/12/20 02:03:02;;;;;;;16.60;2.90;;;3.20;99.90;;;;;;5030825;28;20588;-66
2021/12/20 02:08:21;;;;;;;21.25;3.60;;;3.30;99.90;;;;;;5027117;28;20045;-66
2021/12/20 02:10:49;;;;;;;17.23;2.70;;;3.30;99.90;;;;;;5028236;28;20048;-65
2021/12/20 02:13:15;;;;;;;17.33;2.75;;;3.20;99.90;;;;;;5012636;28;20055;-65
2021/12/20 02:15:41;;;;;;;17.75;3.25;;;3.10;99.90;;;;;;5028851;28;20041;-65
2021/12/20 02:18:07;;;;;;;24.02;3.25;;;3.10;99.90;;;;;;5024284;28;20488;-65
2021/12/20 02:20:34;;;;;;;15.65;3.20;;;3.10;99.90;;;;;;5029465;28;20139;-65
2021/12/20 02:23:01;;;;;;;17.13;2.97;;;3.10;99.90;;;;;;5031143;28;20063;-65
2021/12/20 02:25:28;;;;;;;19.35;3.47;;;3.10;99.90;;;;;;5029813;28;20048;-65
2021/12/20 02:27:55;;;;;;;16.38;3.20;;;3.10;99.90;;;;;;5051580;28;20048;-65
2021/12/20 02:30:49;;;;;;;13.52;3.17;;;3.10;99.90;;;;;;5030706;28;20045;-65
2021/12/20 02:38:38;;;;;;;13.00;2.80;;;3.10;99.90;;;;;;5034408;28;20090;-65
2021/12/20 02:41:11;;;;;;;13.75;2.45;;;3.00;99.90;;;;;;5033041;28;20127;-65
2021/12/20 02:43:41;;;;;;;14.07;2.28;;;3.00;99.90;;;;;;5017570;28;20064;-65
2021/12/20 02:46:52;;;;;;;16.02;3.17;;;2.90;99.90;;;;;;5014658;28;20056;-65
2021/12/20 02:49:20;;;;;;;21.70;3.08;;;2.90;99.90;;;;;;5051862;28;20128;-65
2021/12/20 02:51:47;;;;;;;18.95;3.08;;;2.90;99.90;;;;;;5032847;28;20041;-65
2021/12/20 02:54:14;;;;;;;10.57;3.30;;;2.80;99.90;;;;;;5047201;28;20233;-65
2021/12/20 02:56:42;;;;;;;19.25;2.95;;;2.80;99.90;;;;;;5031638;28;20041;-65
2021/12/20 02:59:08;;;;;;;26.70;3.70;;;2.80;99.90;;;;;;5033767;28;20071;-65
2021/12/20 03:01:36;;;;;;;12.35;2.20;;;2.80;99.90;;;;;;5030836;28;20040;-66
2021/12/20 03:04:02;;;;;;;18.42;2.72;;;2.80;99.90;;;;;;5032908;28;20055;-65
2021/12/20 03:06:37;;;;;;;15.38;3.20;;;2.70;99.90;;;;;;5032394;28;20396;-65
2021/12/20 03:09:05;;;;;;;12.93;3.60;;;2.70;99.90;;;;;;5031547;28;20076;-65
2021/12/20 03:11:31;;;;;;;16.08;3.20;;;2.70;99.90;;;;;;5032050;28;20063;-65
2021/12/20 03:14:09;;;;;;;16.13;3.15;;;2.70;99.90;;;;;;5032035;28;20037;-65
2021/12/20 03:16:35;;;;;;;15.85;3.05;;;2.60;99.90;;;;;;5016882;28;20102;-65
2021/12/20 03:19:03;;;;;;;12.88;2.72;;;2.60;99.90;;;;;;5045161;28;20461;-65
2021/12/20 03:21:28;;;;;;;16.27;3.15;;;2.60;99.90;;;;;;5034520;28;20061;-65
2021/12/20 03:23:54;;;;;;;15.00;2.72;;;2.50;99.90;;;;;;5032266;28;20056;-65
2021/12/20 03:26:19;;;;;;;20.73;3.25;;;2.50;99.90;;;;;;5037759;28;20052;-65
2021/12/20 03:28:45;;;;;;;23.67;3.47;;;2.40;99.90;;;;;;5016174;28;20055;-65
2021/12/20 03:31:12;;;;;;;14.60;3.00;;;2.40;99.90;;;;;;5048963;28;20498;-65
2021/12/20 03:33:38;;;;;;;21.55;3.00;;;2.40;99.90;;;;;;5028712;28;20038;-65
2021/12/20 03:36:04;;;;;;;13.30;3.08;;;2.30;99.90;;;;;;5033869;28;20127;-65
2021/12/20 03:38:29;;;;;;;15.40;3.20;;;2.30;99.90;;;;;;5016552;28;20568;-65
2021/12/20 03:40:55;;;;;;;16.10;2.42;;;2.30;99.90;;;;;;5032341;28;20087;-65
2021/12/20 03:43:24;;;;;;;12.82;2.55;;;2.30;99.90;;;;;;5000584;28;20036;-64
2021/12/20 03:45:51;;;;;;;13.32;3.00;;;2.20;99.90;;;;;;5049673;28;20037;-65
2021/12/20 03:48:16;;;;;;;22.45;3.22;;;2.20;99.90;;;;;;5029115;28;20394;-65
2021/12/20 03:50:42;;;;;;;16.88;3.08;;;2.20;99.90;;;;;;5031368;28;20094;-65
2021/12/20 03:53:09;;;;;;;12.05;2.65;;;2.20;99.90;;;;;;5028817;28;20106;-65
2021/12/20 03:55:35;;;;;;;21.17;3.20;;;2.10;99.90;;;;;;5030834;28;20036;-65
2021/12/20 03:58:00;;;;;;;15.30;3.45;;;2.20;99.90;;;;;;5029795;28;20039;-63
2021/12/20 04:00:26;;;;;;;15.80;2.75;;;2.10;99.90;;;;;;5029817;28;20463;-62
2021/12/20 04:02:52;;;;;;;16.38;3.15;;;2.10;99.90;;;;;;5032838;28;20586;-63
2021/12/20 04:05:18;;;;;;;17.95;3.03;;;2.00;99.90;;;;;;5023140;28;20091;-63
2021/12/20 04:07:44;;;;;;;16.30;2.70;;;1.90;99.90;;;;;;5031560;28;20037;-62
2021/12/20 04:10:09;;;;;;;24.33;2.90;;;1.90;99.90;;;;;;5033635;28;20481;-63
2021/12/20 04:12:35;;;;;;;16.30;2.85;;;1.80;99.90;;;;;;5031451;28;20041;-62
2021/12/20 04:15:01;;;;;;;15.05;3.03;;;1.80;99.90;;;;;;5047011;28;20481;-63
2021/12/20 04:17:26;;;;;;;18.13;2.92;;;1.70;99.90;;;;;;5049048;28;20049;-63
2021/12/20 04:19:52;;;;;;;14.82;2.97;;;1.70;99.90;;;;;;5032059;28;20437;-65
2021/12/20 04:22:19;;;;;;;16.33;2.75;;;1.70;99.90;;;;;;5029640;28;20045;-65
2021/12/20 04:24:45;;;;;;;15.27;2.60;;;1.60;99.90;;;;;;5048222;28;20048;-65
2021/12/20 04:27:10;;;;;;;13.15;2.47;;;1.50;99.90;;;;;;5028769;28;20128;-65
2021/12/20 04:29:36;;;;;;;15.88;3.72;;;1.50;99.90;;;;;;5011679;28;20465;-66
2021/12/20 04:32:02;;;;;;;16.35;3.00;;;1.40;99.90;;;;;;5046625;28;20048;-65
2021/12/20 04:34:28;;;;;;;7.65;2.30;;;1.40;99.90;;;;;;5024647;28;20036;-65
2021/12/20 04:36:54;;;;;;;19.70;2.45;;;1.40;99.90;;;;;;5049785;28;20111;-65
2021/12/20 04:39:24;;;;;;;10.65;2.63;;;1.30;99.90;;;;;;5032310;28;20072;-65
2021/12/20 04:41:49;;;;;;;15.45;2.58;;;1.40;99.90;;;;;;5013667;28;20049;-65
2021/12/20 04:44:15;;;;;;;15.88;2.45;;;1.30;99.90;;;;;;5048447;28;20049;-65
2021/12/20 04:46:41;;;;;;;13.05;2.58;;;1.30;99.90;;;;;;5031269;28;20098;-65
2021/12/20 04:49:06;;;;;;;14.13;2.15;;;1.20;99.90;;;;;;5047181;28;20112;-64
2021/12/20 04:51:32;;;;;;;13.30;2.30;;;1.20;99.90;;;;;;5049328;28;20413;-64
2021/12/20 04:53:57;;;;;;;13.13;2.58;;;1.10;99.90;;;;;;5030393;28;20096;-64
2021/12/20 04:56:23;;;;;;;15.30;2.88;;;1.20;99.90;;;;;;5047616;28;20032;-65
2021/12/20 04:58:49;;;;;;;7.60;2.85;;;1.20;99.90;;;;;;5012308;28;20036;-65
2021/12/20 05:01:14;;;;;;;11.20;3.05;;;1.20;99.90;;;;;;5047592;28;20123;-65
2021/12/20 05:03:40;;;;;;;11.43;2.63;;;1.10;99.90;;;;;;5010484;28;20041;-66
2021/12/20 05:06:05;;;;;;;14.48;2.30;;;1.00;99.90;;;;;;5048553;28;20064;-64
2021/12/20 05:08:37;;;;;;;13.68;2.42;;;1.10;99.90;;;;;;5032308;28;20600;-65
2021/12/20 05:11:05;;;;;;;7.88;2.47;;;1.20;99.90;;;;;;5031573;28;20044;-65
2021/12/20 05:13:32;;;;;;;20.88;2.50;;;1.20;99.90;;;;;;5014202;28;20044;-65
2021/12/20 05:15:58;;;;;;;15.85;2.72;;;1.20;99.90;;;;;;5030722;28;20117;-65
2021/12/20 05:18:24;;;;;;;10.05;1.85;;;1.00;99.90;;;;;;5029909;28;20025;-64
2021/12/20 05:20:49;;;;;;;10.63;2.55;;;1.00;99.90;;;;;;5030153;28;20106;-66
2021/12/20 05:23:15;;;;;;;11.77;2.20;;;0.90;99.90;;;;;;5030943;28;20485;-65
2021/12/20 05:25:41;;;;;;;11.43;2.28;;;0.90;99.90;;;;;;5025417;28;20056;-65
2021/12/20 05:28:08;;;;;;;11.45;2.95;;;0.90;99.90;;;;;;5028262;28;20054;-65
2021/12/20 05:30:34;;;;;;;13.60;2.47;;;0.80;99.90;;;;;;5029436;28;20051;-65
2021/12/20 05:33:00;;;;;;;12.82;3.00;;;0.80;99.90;;;;;;5030328;28;20051;-65
2021/12/20 05:35:27;;;;;;;19.80;3.03;;;0.80;99.90;;;;;;5045215;28;21048;-64
2021/12/20 05:37:52;;;;;;;13.13;2.22;;;0.80;99.90;;;;;;5030754;28;20055;-65
2021/12/20 05:40:20;;;;;;;12.73;2.53;;;0.80;99.90;;;;;;5029534;28;20211;-65
2021/12/20 05:42:45;;;;;;;14.65;2.72;;;0.70;99.90;;;;;;5030234;28;20047;-65
2021/12/20 05:45:12;;;;;;;11.07;1.88;;;0.80;99.90;;;;;;5046667;28;20052;-65
2021/12/20 05:47:38;;;;;;;17.05;3.22;;;0.80;99.90;;;;;;5013963;28;20420;-65
2021/12/20 05:50:05;;;;;;;12.48;2.10;;;0.60;99.90;;;;;;5024089;28;20136;-64
2021/12/20 05:52:30;;;;;;;12.80;2.83;;;0.70;99.90;;;;;;5021759;28;20759;-64
2021/12/20 05:54:56;;;;;;;7.22;1.63;;;0.70;99.90;;;;;;5028903;28;20036;-65
2021/12/20 05:57:22;;;;;;;9.65;1.88;;;0.50;99.90;;;;;;5045473;28;20029;-65
2021/12/20 05:59:48;;;;;;;8.32;2.40;;;0.50;99.90;;;;;;5049177;28;20040;-66
2021/12/20 06:02:13;;;;;;;12.60;2.20;;;0.60;99.90;;;;;;5027850;28;20116;-64
2021/12/20 06:04:39;;;;;;;9.60;2.08;;;0.60;99.90;;;;;;5029096;28;20045;-65
2021/12/20 06:07:05;;;;;;;12.45;1.98;;;0.50;99.90;;;;;;5046521;28;20052;-64
2021/12/20 06:09:31;;;;;;;14.43;2.78;;;0.50;99.90;;;;;;5048079;28;20037;-64
2021/12/20 06:11:59;;;;;;;11.95;2.65;;;0.50;99.90;;;;;;5028652;28;20435;-64
2021/12/20 06:14:29;;;;;;;9.20;2.50;;;0.40;99.90;;;;;;5027530;28;20093;-64
2021/12/20 06:16:57;;;;;;;8.60;1.83;;;0.40;99.90;;;;;;5022760;28;20068;-64
2021/12/20 06:19:24;;;;;;;9.70;2.20;;;0.30;99.90;;;;;;5040038;28;20048;-64
2021/12/20 06:21:50;;;;;;;7.80;2.03;;;0.40;99.90;;;;;;5030852;28;20044;-65
2021/12/20 06:24:16;;;;;;;8.40;1.88;;;0.40;99.90;;;;;;5045322;28;20053;-64
2021/12/20 06:26:41;;;;;;;16.42;2.22;;;0.30;99.90;;;;;;5027699;28;20456;-65
2021/12/20 06:29:07;;;;;;;11.05;2.47;;;0.20;99.90;;;;;;5021064;28;20104;-64
2021/12/20 06:31:32;;;;;;;20.33;2.65;;;0.30;99.90;;;;;;5043189;28;20044;-65
2021/12/20 06:33:58;;;;;;;8.52;2.25;;;0.30;99.90;;;;;;5043987;28;20033;-65
2021/12/20 06:36:26;;;;;;;14.00;2.65;;;0.30;99.90;;;;;;5012894;28;20029;-65
2021/12/20 06:38:53;;;;;;;12.05;1.95;;;0.30;99.90;;;;;;5028665;28;20247;-65
2021/12/20 06:41:20;;;;;;;8.70;2.13;;;0.30;99.90;;;;;;5022573;28;20326;-65
2021/12/20 06:43:46;;;;;;;12.63;2.25;;;0.40;99.90;;;;;;5043374;28;20122;-64
2021/12/20 06:46:13;;;;;;;9.63;2.35;;;0.40;99.90;;;;;;5029282;28;20127;-65
2021/12/20 06:48:39;;;;;;;5.75;2.20;;;0.30;99.90;;;;;;5030322;28;20040;-65
2021/12/20 06:51:04;;;;;;;14.77;3.33;;;0.20;99.90;;;;;;5049425;28;20033;-64
2021/12/20 06:53:30;;;;;;;15.52;3.22;;;0.20;99.90;;;;;;5048826;28;20037;-65
2021/12/20 06:55:55;;;;;;;13.63;2.70;;;0.20;99.90;;;;;;5027876;28;20048;-65
2021/12/20 06:58:23;;;;;;;12.95;2.50;;;0.20;99.90;;;;;;5020450;28;20048;-64
2021/12/20 07:00:52;;;;;;;9.95;2.35;;;0.20;99.90;;;;;;5046082;28;20045;-64
2021/12/20 07:03:19;;;;;;;12.03;2.23;;;0.10;99.90;;;;;;5028913;28;20045;-65
2021/12/20 07:05:45;;;;;;;14.35;2.63;;;0.10;99.90;;;;;;5047373;28;20291;-65
2021/12/20 07:08:10;;;;;;;10.05;2.05;;;0.10;99.90;;;;;;5047541;28;20440;-64
2021/12/20 07:10:36;;;;;;;11.95;2.10;;;0.10;99.90;;;;;;5046661;28;20048;-65
2021/12/20 07:13:01;;;;;;;9.98;2.38;;;0.10;99.90;;;;;;5030671;28;20436;-64
2021/12/20 07:15:27;;;;;;;8.40;2.05;;;0.00;99.90;;;;;;5013426;28;20043;-65
2021/12/20 07:17:53;;;;;;;10.95;2.28;;;0.00;99.90;;;;;;5006231;28;20792;-65
2021/12/20 07:20:19;;;;;;;6.93;2.25;;;-0.10;99.90;;;;;;4988562;28;21004;-65
2021/12/20 07:22:45;;;;;;;8.75;2.10;;;0.00;99.90;;;;;;5032619;28;20044;-65
2021/12/20 07:25:10;;;;;;;17.08;3.08;;;0.00;99.90;;;;;;5032792;28;20052;-65
2021/12/20 07:27:36;;;;;;;13.38;3.92;;;0.00;99.90;;;;;;5028038;28;20098;-65
2021/12/20 07:30:04;;;;;;;19.77;5.50;;;-0.10;99.90;;;;;;5034316;28;20120;-65
2021/12/20 07:32:29;;;;;;;23.92;5.90;;;0.00;99.90;;;;;;5024496;28;20038;-65
2021/12/20 07:34:55;;;;;;;19.10;4.75;;;-0.10;99.90;;;;;;5028792;28;20056;-65
2021/12/20 07:37:22;;;;;;;14.57;3.75;;;-0.10;99.90;;;;;;5052118;28;20044;-65
2021/12/20 07:39:47;;;;;;;11.88;4.47;;;-0.20;99.90;;;;;;5033504;28;20061;-65
2021/12/20 07:42:13;;;;;;;10.25;3.63;;;-0.20;99.90;;;;;;5029490;28;20146;-65
2021/12/20 07:44:39;;;;;;;8.95;3.17;;;-0.20;99.90;;;;;;5031924;28;20053;-65
2021/12/20 07:47:04;;;;;;;9.90;2.65;;;-0.20;99.90;;;;;;5031821;28;20106;-65
2021/12/20 07:49:30;;;;;;;12.93;3.20;;;-0.30;99.90;;;;;;5031613;28;20044;-65
2021/12/20 07:51:56;;;;;;;13.02;3.10;;;-0.40;99.90;;;;;;5028540;28;20069;-65
2021/12/20 07:54:22;;;;;;;9.77;2.40;;;-0.40;99.90;;;;;;5032530;28;20044;-65
2021/12/20 07:56:48;;;;;;;12.32;2.55;;;-0.40;99.90;;;;;;5033488;28;20491;-65
2021/12/20 07:59:13;;;;;;;13.82;3.40;;;-0.50;99.90;;;;;;5051271;28;20877;-64
2021/12/20 08:01:39;;;;;;;14.88;3.08;;;-0.40;99.90;;;;;;5031299;28;20037;-64
2021/12/20 08:04:06;;;;;;;12.10;2.90;;;-0.50;99.90;;;;;;5050292;28;20489;-66
2021/12/20 08:06:32;;;;;;;12.30;3.65;;;-0.50;99.90;;;;;;5031911;28;20044;-65
2021/12/20 08:08:58;;;;;;;7.78;2.50;;;-0.60;99.90;;;;;;5032267;28;20037;-65
2021/12/20 08:11:23;;;;;;;13.75;2.50;;;-0.60;99.90;;;;;;5033413;28;20040;-65
2021/12/20 08:13:49;;;;;;;10.82;2.45;;;-0.50;99.90;;;;;;5012332;28;20151;-65
2021/12/20 08:16:16;;;;;;;14.27;3.30;;;-0.50;99.90;;;;;;5031831;28;20040;-65
2021/12/20 08:18:43;;;;;;;10.05;2.75;;;-0.60;99.90;;;;;;5046646;28;20049;-65
2021/12/20 08:21:10;;;;;;;9.68;2.85;;;-0.60;99.90;;;;;;5030452;28;20414;-65
2021/12/20 08:23:36;;;;;;;9.73;2.67;;;-0.60;99.90;;;;;;5015651;28;20469;-65
2021/12/20 08:26:03;;;;;;;16.85;3.20;;;-0.60;99.90;;;;;;5029803;28;20186;-65
2021/12/20 08:28:29;;;;;;;9.10;3.38;;;-0.50;99.90;;;;;;5030321;28;20116;-65
2021/12/20 08:30:55;;;;;;;19.77;7.45;;;-0.50;99.90;;;;;;5046538;28;20120;-65
2021/12/20 08:33:20;;;;;;;20.98;7.88;;;-0.50;99.90;;;;;;5030894;28;20722;-65
2021/12/20 08:35:49;;;;;;;28.65;9.80;;;-0.40;99.90;;;;;;5031861;28;20044;-65
2021/12/20 08:38:17;;;;;;;34.33;12.57;;;-0.30;99.90;;;;;;5042997;28;20104;-65
2021/12/20 08:40:42;;;;;;;20.50;8.25;;;-0.30;99.90;;;;;;5016245;28;20052;-65
2021/12/20 08:43:08;;;;;;;15.73;4.50;;;-0.30;99.90;;;;;;5015597;28;20118;-65
2021/12/20 08:45:34;;;;;;;23.13;6.40;;;-0.20;99.90;;;;;;5030829;28;20045;-65
2021/12/20 08:47:59;;;;;;;17.10;3.83;;;-0.10;99.90;;;;;;5032333;28;20519;-65
2021/12/20 08:50:25;;;;;;;17.13;3.75;;;-0.10;99.90;;;;;;5047480;28;20503;-65
2021/12/20 08:52:51;;;;;;;17.70;3.67;;;-0.10;99.90;;;;;;5026863;28;20029;-65
2021/12/20 08:55:18;;;;;;;15.80;3.85;;;-0.10;99.90;;;;;;5035036;28;20048;-65
2021/12/20 08:57:44;;;;;;;16.38;3.58;;;-0.10;99.90;;;;;;5049361;28;20048;-65
2021/12/20 09:00:18;;;;;;;15.18;3.47;;;-0.10;99.90;;;;;;5033464;28;20757;-65
2021/12/20 09:02:44;;;;;;;10.45;2.95;;;0.00;99.90;;;;;;5060014;28;20102;-65
2021/12/20 09:05:10;;;;;;;10.32;3.30;;;0.00;99.90;;;;;;5029998;28;20420;-65
2021/12/20 09:07:36;;;;;;;12.43;3.80;;;0.00;99.90;;;;;;5033352;28;20094;-65
2021/12/20 09:10:04;;;;;;;11.55;3.50;;;0.00;99.90;;;;;;5024114;28;20378;-65
2021/12/20 09:12:29;;;;;;;23.52;3.90;;;0.00;99.90;;;;;;5022630;28;20034;-65
2021/12/20 09:14:55;;;;;;;19.90;5.22;;;0.10;99.90;;;;;;5030036;28;20037;-65
2021/12/20 09:17:20;;;;;;;15.80;3.65;;;0.10;99.90;;;;;;5028812;28;20643;-65
2021/12/20 09:19:46;;;;;;;22.48;5.00;;;0.10;99.90;;;;;;5030217;28;20330;-66
2021/12/20 09:22:12;;;;;;;25.55;4.60;;;0.20;99.90;;;;;;5048969;28;20037;-66
2021/12/20 09:24:39;;;;;;;19.00;4.55;;;0.30;99.90;;;;;;5028553;28;20056;-65
2021/12/20 09:27:06;;;;;;;23.02;4.07;;;0.50;99.90;;;;;;5047474;28;20056;-65
2021/12/20 09:29:32;;;;;;;19.23;5.25;;;0.50;99.90;;;;;;5025921;28;20117;-65
2021/12/20 09:31:58;;;;;;;14.15;3.90;;;0.60;99.90;;;;;;5026851;28;20045;-65
2021/12/20 09:34:24;;;;;;;12.60;4.20;;;0.50;99.90;;;;;;5048060;28;20090;-66
2021/12/20 09:36:52;;;;;;;17.65;4.20;;;0.50;99.90;;;;;;5029999;28;20622;-66
2021/12/20 09:39:18;;;;;;;16.48;4.05;;;0.60;99.90;;;;;;5030858;28;20049;-65
2021/12/20 09:44:11;;;;;;;14.23;4.32;;;0.60;99.90;;;;;;5027376;28;20045;-66
2021/12/20 09:46:39;;;;;;;17.73;4.18;;;0.60;99.90;;;;;;5023118;28;20614;-65
2021/12/20 09:49:06;;;;;;;21.05;4.43;;;0.60;99.90;;;;;;5031377;28;20044;-66
2021/12/20 09:51:32;;;;;;;15.82;4.30;;;0.70;99.90;;;;;;5029374;28;20066;-66
2021/12/20 09:53:58;;;;;;;19.30;4.07;;;0.70;99.90;;;;;;5014639;28;20029;-66
2021/12/20 09:56:25;;;;;;;17.45;5.22;;;0.80;99.90;;;;;;5031674;28;20472;-66
2021/12/20 09:58:57;;;;;;;22.42;5.03;;;0.90;99.90;;;;;;5029648;28;20048;-66
2021/12/20 10:01:25;;;;;;;19.63;5.30;;;1.00;99.90;;;;;;5029767;28;20432;-67
2021/12/20 10:03:52;;;;;;;23.15;5.53;;;1.00;99.90;;;;;;5030895;28;21556;-66
2021/12/20 10:06:19;;;;;;;19.67;4.47;;;1.10;99.90;;;;;;5023213;28;20448;-66
2021/12/20 10:08:50;;;;;;;15.98;4.40;;;1.10;99.90;;;;;;5031424;28;20045;-66
2021/12/20 10:11:24;;;;;;;22.02;4.25;;;1.20;99.90;;;;;;5030820;28;20043;-66
2021/12/20 10:14:02;;;;;;;20.35;4.88;;;1.30;99.90;;;;;;5015532;28;20825;-66
2021/12/20 10:16:28;;;;;;;16.02;4.32;;;1.50;99.90;;;;;;5013725;28;20041;-66
2021/12/20 10:18:54;;;;;;;8.40;3.47;;;1.60;99.90;;;;;;5040979;28;20452;-66
2021/12/20 10:21:20;;;;;;;7.32;2.92;;;1.70;99.90;;;;;;5035382;28;20068;-66
2021/12/20 10:23:48;;;;;;;6.53;3.05;;;1.70;99.90;;;;;;5015566;28;20513;-67
2021/12/20 10:26:20;;;;;;;11.50;3.25;;;1.80;99.90;;;;;;5030882;28;20052;-66
2021/12/20 10:28:48;;;;;;;4.95;2.83;;;1.90;99.90;;;;;;5027612;28;20052;-66
2021/12/20 10:31:16;;;;;;;5.72;2.63;;;2.00;99.90;;;;;;5024680;28;20076;-66
2021/12/20 10:33:52;;;;;;;6.15;2.90;;;2.20;99.90;;;;;;5046182;28;20527;-66
2021/12/20 10:36:17;;;;;;;6.32;2.63;;;2.20;99.90;;;;;;5048356;28;20098;-66
2021/12/20 10:38:46;;;;;;;4.35;2.30;;;2.30;99.90;;;;;;5031267;28;20025;-66
2021/12/20 10:41:27;;;;;;;2.92;2.00;;;2.30;99.90;;;;;;5028744;28;20037;-66
2021/12/20 10:43:58;;;;;;;5.68;2.30;;;2.40;99.90;;;;;;5012984;28;20464;-66
2021/12/20 10:46:28;;;;;;;7.10;2.30;;;2.40;99.90;;;;;;5046858;28;20052;-66
2021/12/20 10:49:04;;;;;;;4.35;2.58;;;2.50;99.90;;;;;;5031380;28;20143;-66
2021/12/20 10:51:31;;;;;;;13.25;3.60;;;2.50;99.90;;;;;;5029523;28;20037;-66
2021/12/20 10:54:02;;;;;;;8.52;2.88;;;2.60;99.90;;;;;;5020803;28;20886;-66
2021/12/20 10:56:30;;;;;;;14.35;4.80;;;2.60;99.90;;;;;;5045907;28;20500;-66
2021/12/20 10:58:58;;;;;;;13.55;4.13;;;2.80;99.90;;;;;;5028565;28;20154;-65
2021/12/20 11:04:13;;;;;;;19.65;4.95;;;2.90;99.90;;;;;;5047889;28;20033;-65
2021/12/20 11:09:14;;;;;;;23.98;6.05;;;3.00;99.90;;;;;;5028838;28;20064;-65
2021/12/20 11:11:44;;;;;;;17.67;6.43;;;3.10;99.90;;;;;;5016509;28;20036;-65
2021/12/20 11:14:10;;;;;;;23.50;6.30;;;3.30;99.90;;;;;;5050619;28;20083;-66
2021/12/20 11:16:51;;;;;;;14.25;6.22;;;3.40;99.90;;;;;;5033393;28;20028;-66
2021/12/20 11:19:18;;;;;;;18.48;5.05;;;3.40;99.90;;;;;;5031748;28;20041;-66
2021/12/20 11:21:53;;;;;;;20.92;5.57;;;3.50;99.90;;;;;;5034947;28;20186;-66
2021/12/20 11:24:28;;;;;;;22.38;5.88;;;3.60;99.90;;;;;;5034082;28;20057;-66
2021/12/20 11:26:56;;;;;;;21.85;5.80;;;3.70;99.90;;;;;;5033979;28;20053;-66
2021/12/20 11:29:22;;;;;;;20.90;5.18;;;3.70;99.90;;;;;;5032069;28;20090;-66
2021/12/20 11:31:48;;;;;;;13.65;5.57;;;3.80;99.90;;;;;;5032982;28;20073;-66
2021/12/20 11:34:14;;;;;;;27.75;6.15;;;3.80;99.90;;;;;;5033526;28;20029;-66
2021/12/20 11:36:40;;;;;;;18.55;4.95;;;3.90;99.90;;;;;;5034741;28;20084;-65
2021/12/20 11:39:07;;;;;;;11.98;4.97;;;3.90;99.90;;;;;;5050351;28;20122;-65
2021/12/20 11:41:33;;;;;;;19.95;5.10;;;4.00;99.90;;;;;;5029726;28;20037;-66
2021/12/20 11:44:01;;;;;;;16.88;4.35;;;4.00;99.90;;;;;;5031895;28;20052;-65
2021/12/20 11:46:34;;;;;;;16.35;4.25;;;4.00;99.90;;;;;;4992600;28;20045;-67
2021/12/20 11:49:00;;;;;;;18.63;5.05;;;4.00;99.90;;;;;;5033369;28;20052;-67
2021/12/20 11:51:26;;;;;;;15.80;3.92;;;4.20;99.90;;;;;;5028265;28;20037;-67
2021/12/20 11:53:51;;;;;;;13.98;3.95;;;4.20;99.90;;;;;;5025821;28;20609;-67
2021/12/20 11:56:33;;;;;;;16.42;4.28;;;4.20;99.90;;;;;;5032643;28;20033;-68
2021/12/20 11:58:59;;;;;;;16.60;3.90;;;4.30;99.90;;;;;;5032151;28;20087;-67
2021/12/20 12:01:25;;;;;;;15.30;4.50;;;4.30;99.90;;;;;;5016281;28;20587;-68
2021/12/20 12:03:53;;;;;;;16.65;4.28;;;4.30;99.90;;;;;;5050907;28;20051;-67
2021/12/20 12:06:31;;;;;;;20.35;3.90;;;4.40;99.90;;;;;;5035529;28;21085;-68
2021/12/20 12:08:59;;;;;;;16.10;4.25;;;4.40;99.90;;;;;;5033363;28;20056;-67
2021/12/20 12:11:24;;;;;;;18.92;5.15;;;4.50;99.90;;;;;;5022513;28;20377;-67
2021/12/20 12:16:46;;;;;;;14.75;4.20;;;4.50;99.90;;;;;;5026102;28;20049;-67
2021/12/20 12:19:12;;;;;;;11.90;4.43;;;4.50;99.90;;;;;;5029883;28;20163;-67
2021/12/20 12:21:40;;;;;;;11.25;4.07;;;4.50;99.90;;;;;;5014107;28;20180;-67
2021/12/20 12:24:09;;;;;;;10.70;3.70;;;4.60;99.90;;;;;;5029844;28;20416;-68
2021/12/20 12:26:38;;;;;;;14.57;4.27;;;4.60;99.90;;;;;;5032616;28;20121;-67
2021/12/20 12:29:06;;;;;;;15.55;4.53;;;4.60;99.90;;;;;;5029684;28;20049;-67
2021/12/20 12:31:58;;;;;;;12.60;4.80;;;4.70;99.90;;;;;;5047045;28;20120;-67
2021/12/20 12:34:41;;;;;;;14.15;5.05;;;4.70;99.90;;;;;;5030201;28;20024;-68
2021/12/20 12:37:29;;;;;;;13.07;4.55;;;4.70;99.90;;;;;;5029447;28;20041;-65
2021/12/20 12:40:24;;;;;;;18.65;5.35;;;4.80;99.90;;;;;;5025318;28;20064;-65
2021/12/20 12:42:55;;;;;;;10.75;4.15;;;4.80;99.90;;;;;;5029260;28;20053;-68
2021/12/20 12:45:50;;;;;;;10.57;4.07;;;4.80;99.90;;;;;;5029818;28;20048;-68
2021/12/20 12:48:34;;;;;;;15.70;4.07;;;4.90;99.90;;;;;;5009142;28;20453;-68
2021/12/20 12:51:19;;;;;;;12.25;4.15;;;4.90;99.90;;;;;;5030243;28;20044;-68
2021/12/20 12:53:51;;;;;;;14.95;3.95;;;4.90;99.90;;;;;;5025756;28;20160;-68
2021/12/20 12:56:35;;;;;;;10.43;3.72;;;4.90;99.90;;;;;;5031364;28;20435;-68
2021/12/20 12:59:16;;;;;;;13.93;4.25;;;4.90;99.90;;;;;;5030218;28;20052;-67
2021/12/20 13:01:57;;;;;;;9.18;3.30;;;4.90;99.90;;;;;;5030415;28;20044;-67
2021/12/20 13:04:55;;;;;;;9.68;2.97;;;4.90;99.90;;;;;;5032279;28;20587;-68
2021/12/20 13:07:22;;;;;;;9.82;3.70;;;4.90;99.90;;;;;;5028285;28;20049;-68
2021/12/20 13:09:49;;;;;;;13.60;3.40;;;4.90;99.90;;;;;;5032003;28;20049;-68
2021/12/20 13:12:24;;;;;;;12.95;3.90;;;4.80;99.90;;;;;;5027033;28;20064;-68
2021/12/20 13:15:11;;;;;;;11.93;3.20;;;4.90;99.90;;;;;;5027672;28;20116;-68